createdAt,value
2024-01-24T00:25:23.977Z,1.37
2024-01-24T00:27:55.762Z,1.53
2024-01-24T00:30:24.547Z,1.40
2024-01-24T00:32:53.306Z,1.20
2024-01-24T00:35:21.703Z,1.30
2024-01-24T00:37:49.928Z,1.30
2024-01-24T00:40:18.877Z,1.30
2024-01-24T00:42:47.648Z,0.93
2024-01-24T00:45:18.264Z,1.20
2024-01-24T00:47:47.848Z,1.10
2024-01-24T00:50:16.668Z,1.10
2024-01-24T00:52:45.319Z,1.10
2024-01-24T00:55:13.577Z,1.00
2024-01-24T00:57:41.849Z,1.07
2024-01-24T01:00:12.558Z,1.07
2024-01-24T01:02:42.721Z,1.00
2024-01-24T01:05:11.181Z,1.17
2024-01-24T01:07:58.136Z,0.83
2024-01-24T01:10:26.359Z,1.00
2024-01-24T01:12:55.332Z,0.93
2024-01-24T01:15:25.911Z,1.10
2024-01-24T01:17:56.525Z,0.90
2024-01-24T01:20:25.108Z,1.00
2024-01-24T01:22:53.336Z,0.93
2024-01-24T01:25:22.166Z,0.90
2024-01-24T01:27:50.618Z,0.90
2024-01-24T01:30:19.397Z,1.00
2024-01-24T01:32:47.879Z,0.80
2024-01-24T01:35:18.247Z,1.00
2024-01-24T01:37:46.932Z,1.10
2024-01-24T01:40:40.104Z,0.90
2024-01-24T01:43:12.619Z,0.90
2024-01-24T01:45:41.467Z,0.90
2024-01-24T01:48:11.274Z,0.80
2024-01-24T01:50:42.262Z,0.80
2024-01-24T01:53:11.117Z,0.90
2024-01-24T01:55:39.630Z,1.10
2024-01-24T01:58:08.114Z,0.70
2024-01-24T02:00:36.820Z,0.80
2024-01-24T02:03:06.139Z,0.80
2024-01-24T02:05:36.769Z,0.70
2024-01-24T02:08:09.408Z,1.00
2024-01-24T02:10:39.110Z,0.77
2024-01-24T02:13:07.849Z,0.90
2024-01-24T02:15:36.635Z,0.90
2024-01-24T02:18:05.727Z,0.97
2024-01-24T02:20:35.086Z,0.90
2024-01-24T02:23:04.032Z,0.80
2024-01-24T02:25:33.412Z,0.70
2024-01-24T02:28:02.049Z,0.73
2024-01-24T02:30:30.511Z,0.80
2024-01-24T02:33:01.112Z,0.80
2024-01-24T02:35:30.239Z,0.80
2024-01-24T02:37:58.450Z,0.70
2024-01-24T02:40:27.193Z,0.60
2024-01-24T02:42:57.479Z,0.80
2024-01-24T02:45:26.241Z,0.70
2024-01-24T02:47:55.025Z,0.97
2024-01-24T02:50:23.384Z,0.80
2024-01-24T02:52:51.694Z,0.70
2024-01-24T02:55:19.934Z,0.77
2024-01-24T02:57:48.947Z,0.87
2024-01-24T03:00:20.291Z,0.60
2024-01-24T03:02:49.053Z,0.70
2024-01-24T03:05:17.767Z,0.80
2024-01-24T03:07:46.066Z,0.73
2024-01-24T03:10:14.584Z,0.70
2024-01-24T03:12:42.871Z,0.70
2024-01-24T03:15:11.825Z,0.80
2024-01-24T03:17:41.829Z,0.73
2024-01-24T03:20:11.984Z,0.70
2024-01-24T03:22:40.844Z,0.60
2024-01-24T03:25:10.108Z,0.50
2024-01-24T03:27:40.279Z,0.40
2024-01-24T03:30:10.115Z,0.53
2024-01-24T03:32:38.447Z,0.60
2024-01-24T03:35:11.734Z,0.50
2024-01-24T03:37:40.101Z,0.77
2024-01-24T03:40:09.745Z,0.80
2024-01-24T03:42:38.492Z,1.00
2024-01-24T03:45:07.581Z,0.70
2024-01-24T03:47:36.297Z,0.50
2024-01-24T03:50:05.127Z,0.80
2024-01-24T03:52:34.877Z,0.87
2024-01-24T03:55:03.971Z,0.67
2024-01-24T03:57:32.538Z,0.80
2024-01-24T04:00:01.190Z,0.80
2024-01-24T04:02:29.552Z,0.63
2024-01-24T04:04:57.808Z,0.63
2024-01-24T04:07:26.165Z,0.60
2024-01-24T04:09:56.486Z,0.70
2024-01-24T04:12:24.718Z,1.00
2024-01-24T04:14:52.945Z,0.90
2024-01-24T04:17:21.622Z,1.00
2024-01-24T04:19:50.110Z,1.20
2024-01-24T04:22:18.793Z,1.13
2024-01-24T04:24:47.745Z,1.03
2024-01-24T04:27:18.236Z,1.27
2024-01-24T04:29:46.909Z,1.50
2024-01-24T04:32:15.581Z,1.57
2024-01-24T04:34:44.321Z,1.20
2024-01-24T04:37:12.777Z,1.20
2024-01-24T04:39:41.139Z,1.73
2024-01-24T04:42:16.078Z,1.90
2024-01-24T04:44:47.438Z,2.00
2024-01-24T04:47:16.039Z,1.90
2024-01-24T04:49:46.066Z,2.20
2024-01-24T04:52:15.885Z,2.40
2024-01-24T04:54:44.701Z,2.50
2024-01-24T04:57:13.003Z,2.93
2024-01-24T04:59:49.925Z,2.60
2024-01-24T05:02:25.899Z,3.00
2024-01-24T05:04:54.296Z,3.07
2024-01-24T05:07:23.001Z,3.90
2024-01-24T05:09:51.808Z,3.83
2024-01-24T05:12:20.094Z,3.23
2024-01-24T05:14:48.397Z,4.43
2024-01-24T05:17:17.096Z,4.53
2024-01-24T05:19:47.111Z,4.80
2024-01-24T05:22:16.878Z,5.07
2024-01-24T05:24:47.521Z,4.30
2024-01-24T05:27:16.729Z,4.77
2024-01-24T05:29:48.225Z,4.90
2024-01-24T05:32:16.978Z,4.90
2024-01-24T05:34:47.155Z,4.47
2024-01-24T05:37:15.942Z,4.43
2024-01-24T05:39:44.302Z,5.10
2024-01-24T05:42:13.172Z,5.00
2024-01-24T05:44:41.412Z,5.60
2024-01-24T05:47:09.996Z,4.77
2024-01-24T05:49:39.300Z,5.70
2024-01-24T05:52:09.621Z,5.17
2024-01-24T05:54:38.199Z,5.37
2024-01-24T05:57:07.737Z,5.60
2024-01-24T05:59:36.316Z,5.43
2024-01-24T06:02:06.328Z,5.90
2024-01-24T06:04:34.896Z,5.50
2024-01-24T06:07:03.647Z,5.60
2024-01-24T06:09:33.781Z,5.43
2024-01-24T06:12:02.633Z,5.90
2024-01-24T06:14:30.864Z,5.63
2024-01-24T06:16:59.694Z,6.10
2024-01-24T06:19:28.433Z,5.67
2024-01-24T06:21:56.906Z,5.57
2024-01-24T06:24:25.218Z,5.57
2024-01-24T06:26:55.100Z,5.43
2024-01-24T06:30:15.035Z,6.00
2024-01-24T06:32:12.675Z,5.80
2024-01-24T06:34:41.019Z,5.47
2024-01-24T06:37:11.286Z,6.20
2024-01-24T06:39:39.769Z,6.03
2024-01-24T06:42:10.102Z,5.77
2024-01-24T06:44:38.370Z,5.90
2024-01-24T06:47:06.950Z,5.50
2024-01-24T06:49:35.356Z,5.77
2024-01-24T06:52:04.128Z,6.23
2024-01-24T06:54:32.428Z,6.03
2024-01-24T06:57:02.092Z,6.00
2024-01-24T06:59:32.427Z,6.20
2024-01-24T07:02:01.110Z,6.93
2024-01-24T07:04:29.584Z,6.13
2024-01-24T07:06:58.378Z,6.60
2024-01-24T07:09:26.671Z,6.73
2024-01-24T07:11:55.035Z,6.57
2024-01-24T07:14:23.801Z,6.40
2024-01-24T07:16:56.316Z,7.47
2024-01-24T07:19:25.332Z,6.67
2024-01-24T07:21:53.920Z,6.53
2024-01-24T07:24:22.814Z,6.53
2024-01-24T07:26:51.416Z,7.23
2024-01-24T07:29:19.631Z,6.97
2024-01-24T07:31:47.927Z,6.73
2024-01-24T07:34:18.376Z,6.17
2024-01-24T07:36:46.826Z,6.43
2024-01-24T07:39:15.486Z,7.70
2024-01-24T07:41:43.795Z,7.37
2024-01-24T07:44:12.167Z,7.30
2024-01-24T07:46:44.645Z,6.80
2024-01-24T07:49:13.613Z,7.50
2024-01-24T07:51:46.569Z,6.73
2024-01-24T07:54:15.166Z,6.50
2024-01-24T07:56:43.976Z,7.10
2024-01-24T07:59:15.119Z,6.87
2024-01-24T08:01:45.724Z,8.23
2024-01-24T08:04:14.915Z,6.70
2024-01-24T08:06:47.356Z,7.53
2024-01-24T08:09:16.747Z,7.50
2024-01-24T08:11:45.997Z,7.87
2024-01-24T08:14:15.234Z,6.77
2024-01-24T08:17:05.487Z,6.63
2024-01-24T08:19:34.529Z,8.03
2024-01-24T08:22:05.172Z,7.43
2024-01-24T08:24:33.549Z,6.90
2024-01-24T08:27:02.390Z,7.57
2024-01-24T08:29:36.796Z,7.87
2024-01-24T08:32:07.446Z,6.83
2024-01-24T08:34:38.374Z,7.50
2024-01-24T08:37:09.894Z,7.47
2024-01-24T08:39:39.930Z,7.43
2024-01-24T08:42:07.841Z,7.07
2024-01-24T08:44:36.138Z,7.37
2024-01-24T08:47:05.243Z,8.03
2024-01-24T08:49:33.930Z,6.90
2024-01-24T08:52:02.648Z,7.43
2024-01-24T08:54:34.474Z,6.80
2024-01-24T08:57:04.222Z,7.50
2024-01-24T08:59:33.491Z,7.53
2024-01-24T09:02:03.151Z,7.87
2024-01-24T09:04:31.696Z,7.47
2024-01-24T09:07:00.466Z,7.43
2024-01-24T09:09:31.975Z,7.43
2024-01-24T09:12:02.258Z,8.20
2024-01-24T09:14:31.209Z,8.10
2024-01-24T09:16:59.934Z,7.00
2024-01-24T09:19:30.643Z,7.80
2024-01-24T09:21:59.229Z,7.43
2024-01-24T09:24:27.694Z,8.00
2024-01-24T09:26:56.480Z,7.50
2024-01-24T09:29:27.004Z,7.73
2024-01-24T09:31:55.399Z,7.57
2024-01-24T09:34:25.016Z,6.50
2024-01-24T09:36:53.489Z,7.17
2024-01-24T09:39:22.310Z,7.43
2024-01-24T09:41:53.480Z,7.17
2024-01-24T09:44:22.792Z,7.40
2024-01-24T09:46:55.447Z,7.77
2024-01-24T09:49:24.469Z,7.50
2024-01-24T09:51:54.544Z,7.43
2024-01-24T09:54:24.199Z,8.17
2024-01-24T09:56:53.837Z,8.10
2024-01-24T09:59:22.223Z,6.93
2024-01-24T10:01:54.795Z,6.47
2024-01-24T10:04:24.514Z,8.03
2024-01-24T10:06:54.740Z,6.77
2024-01-24T10:09:23.324Z,7.83
2024-01-24T10:11:52.074Z,6.53
2024-01-24T10:14:21.303Z,8.17
2024-01-24T10:16:49.601Z,7.60
2024-01-24T10:19:24.250Z,7.40
2024-01-24T10:21:53.061Z,7.90
2024-01-24T10:24:22.195Z,7.63
2024-01-24T10:26:50.646Z,7.07
2024-01-24T10:29:19.105Z,7.53
2024-01-24T10:31:47.787Z,7.17
2024-01-24T10:34:16.488Z,8.43
2024-01-24T10:36:47.780Z,8.00
2024-01-24T10:39:18.769Z,8.53
2024-01-24T10:41:53.165Z,6.97
2024-01-24T10:44:26.968Z,8.20
2024-01-24T10:46:57.208Z,7.27
2024-01-24T10:49:26.731Z,7.43
2024-01-24T10:51:57.690Z,7.53
2024-01-24T10:54:26.905Z,7.73
2024-01-24T10:56:58.388Z,7.77
2024-01-24T10:59:29.769Z,8.40
2024-01-24T11:01:59.221Z,7.50
2024-01-24T11:04:29.495Z,7.07
2024-01-24T11:07:04.169Z,7.63
2024-01-24T11:09:40.016Z,7.63
2024-01-24T11:12:09.212Z,7.20
2024-01-24T11:14:38.084Z,8.37
2024-01-24T11:17:07.416Z,8.07
2024-01-24T11:19:36.428Z,8.37
2024-01-24T11:22:19.863Z,6.73
2024-01-24T11:24:56.131Z,7.77
2024-01-24T11:27:34.778Z,6.83
2024-01-24T11:30:39.049Z,6.80
2024-01-24T11:33:07.617Z,7.17
2024-01-24T11:35:39.151Z,6.93
2024-01-24T11:38:30.753Z,6.70
2024-01-24T11:41:03.969Z,7.70
2024-01-24T11:43:36.973Z,8.20
2024-01-24T11:46:10.127Z,6.90
2024-01-24T11:48:40.900Z,6.90
2024-01-24T11:51:11.698Z,7.07
2024-01-24T11:53:42.104Z,6.80
2024-01-24T11:56:13.854Z,7.10
2024-01-24T11:58:43.034Z,6.70
2024-01-24T12:01:13.746Z,6.20
2024-01-24T12:03:48.478Z,6.10
2024-01-24T12:06:17.629Z,6.10
2024-01-24T12:08:50.320Z,6.90
2024-01-24T12:11:20.612Z,6.90
2024-01-24T12:13:49.165Z,6.63
2024-01-24T12:16:21.334Z,6.40
2024-01-24T12:18:49.990Z,7.00
2024-01-24T12:21:20.837Z,7.00
2024-01-24T12:23:51.868Z,6.50
2024-01-24T12:26:20.753Z,6.63
2024-01-24T12:28:49.405Z,6.93
2024-01-24T12:31:18.569Z,6.47
2024-01-24T12:33:47.433Z,6.87
2024-01-24T12:36:16.349Z,6.53
2024-01-24T12:38:45.472Z,6.43
2024-01-24T12:41:15.678Z,6.57
2024-01-24T12:43:44.536Z,6.20
2024-01-24T12:46:14.610Z,6.23
2024-01-24T12:48:43.436Z,6.10
2024-01-24T12:51:11.810Z,6.33
2024-01-24T12:53:40.169Z,6.13
2024-01-24T12:56:08.664Z,6.20
2024-01-24T12:58:38.604Z,7.27
2024-01-24T13:01:07.017Z,6.43
2024-01-24T13:03:35.471Z,6.60
2024-01-24T13:06:04.801Z,5.80
2024-01-24T13:08:33.173Z,6.43
2024-01-24T13:11:02.822Z,5.67
2024-01-24T13:13:31.257Z,6.33
2024-01-24T13:16:01.320Z,5.87
2024-01-24T13:18:30.132Z,5.80
2024-01-24T13:20:58.650Z,5.70
2024-01-24T13:23:27.897Z,5.83
2024-01-24T13:25:57.628Z,5.93
2024-01-24T13:28:26.572Z,5.27
2024-01-24T13:30:55.792Z,5.60
2024-01-24T13:33:26.144Z,5.77
2024-01-24T13:35:54.879Z,5.60
2024-01-24T13:38:23.306Z,6.17
2024-01-24T13:40:51.656Z,5.27
2024-01-24T13:43:20.680Z,6.20
2024-01-24T13:45:48.497Z,5.43
2024-01-24T13:48:17.248Z,5.63
2024-01-24T13:50:50.113Z,5.23
2024-01-24T13:53:19.128Z,5.23
2024-01-24T13:55:47.737Z,5.70
2024-01-24T13:58:16.574Z,5.83
2024-01-24T14:00:45.794Z,5.57
2024-01-24T14:03:15.328Z,6.03
2024-01-24T14:05:44.857Z,6.57
2024-01-24T14:08:15.009Z,6.07
2024-01-24T14:10:43.487Z,4.87
2024-01-24T14:13:12.194Z,5.80
2024-01-24T14:15:40.819Z,7.30
2024-01-24T14:18:10.241Z,6.07
2024-01-24T14:20:39.104Z,5.40
2024-01-24T14:23:08.112Z,5.67
2024-01-24T14:25:38.231Z,5.63
2024-01-24T14:28:07.581Z,5.83
2024-01-24T14:30:36.002Z,5.27
2024-01-24T14:33:05.842Z,5.73
2024-01-24T14:35:34.518Z,5.57
2024-01-24T14:38:03.316Z,5.53
2024-01-24T14:40:32.498Z,5.47
2024-01-24T14:43:05.119Z,6.27
2024-01-24T14:45:33.934Z,6.30
2024-01-24T14:48:02.412Z,5.00
2024-01-24T14:50:31.305Z,5.67
2024-01-24T14:53:00.648Z,5.07
2024-01-24T14:55:29.004Z,5.83
2024-01-24T14:57:57.770Z,5.57
2024-01-24T15:00:28.257Z,5.33
2024-01-24T15:02:56.972Z,5.80
2024-01-24T15:05:26.716Z,6.20
2024-01-24T15:07:55.525Z,5.57
2024-01-24T15:10:24.490Z,5.50
2024-01-24T15:12:54.459Z,5.27
2024-01-24T15:15:23.206Z,6.10
2024-01-24T15:17:53.639Z,6.07
2024-01-24T15:20:22.252Z,6.10
2024-01-24T15:22:51.812Z,6.33
2024-01-24T15:25:20.411Z,5.93
2024-01-24T15:27:49.232Z,6.13
2024-01-24T15:30:19.778Z,6.53
2024-01-24T15:32:48.032Z,7.23
2024-01-24T15:35:18.702Z,6.40
2024-01-24T15:37:47.309Z,7.27
2024-01-24T15:40:18.296Z,6.83
2024-01-24T15:42:47.350Z,6.13
2024-01-24T15:45:16.336Z,7.03
2024-01-24T15:47:45.221Z,6.67
2024-01-24T15:50:14.613Z,6.93
2024-01-24T15:52:44.798Z,6.57
2024-01-24T15:55:13.741Z,7.40
2024-01-24T15:57:42.409Z,7.53
2024-01-24T16:00:12.429Z,6.60
2024-01-24T16:02:42.754Z,6.57
2024-01-24T16:05:24.421Z,7.80
2024-01-24T16:07:55.074Z,7.77
2024-01-24T16:10:24.337Z,7.57
2024-01-24T16:12:52.842Z,7.37
2024-01-24T16:15:21.426Z,7.53
2024-01-24T16:17:50.389Z,6.97
2024-01-24T16:20:19.665Z,6.77
2024-01-24T16:22:54.897Z,6.77
2024-01-24T16:25:27.372Z,7.17
2024-01-24T16:27:56.518Z,7.43
2024-01-24T16:30:29.271Z,7.40
2024-01-24T16:32:59.103Z,7.13
2024-01-24T16:35:27.894Z,7.17
2024-01-24T16:37:56.341Z,7.37
2024-01-24T16:40:28.802Z,6.83
2024-01-24T16:42:58.530Z,7.60
2024-01-24T16:45:27.198Z,7.47
2024-01-24T16:47:55.829Z,7.97
2024-01-24T16:50:24.567Z,7.60
2024-01-24T16:52:53.256Z,7.23
2024-01-24T16:55:21.957Z,6.90
2024-01-24T16:57:52.024Z,6.87
2024-01-24T17:00:20.728Z,6.73
2024-01-24T17:02:54.477Z,7.13
2024-01-24T17:05:26.892Z,6.90
2024-01-24T17:07:55.595Z,7.10
2024-01-24T17:10:24.268Z,7.57
2024-01-24T17:12:54.344Z,7.13
2024-01-24T17:15:22.731Z,6.93
2024-01-24T17:17:51.440Z,7.67
2024-01-24T17:20:20.269Z,7.77
2024-01-24T17:22:48.858Z,8.20
2024-01-24T17:25:21.456Z,7.63
2024-01-24T17:27:52.496Z,7.37
2024-01-24T17:30:22.870Z,8.17
2024-01-24T17:32:51.689Z,7.23
2024-01-24T17:35:20.221Z,7.60
2024-01-24T17:37:48.962Z,7.90
2024-01-24T17:40:18.384Z,7.30
2024-01-24T17:42:49.542Z,7.90
2024-01-24T17:45:18.895Z,7.87
2024-01-24T17:47:49.216Z,7.17
2024-01-24T17:50:18.683Z,6.67
2024-01-24T17:52:47.510Z,7.90
2024-01-24T17:55:16.210Z,7.03
2024-01-24T17:57:45.595Z,7.60
2024-01-24T18:00:15.541Z,7.63
2024-01-24T18:02:43.917Z,7.50
2024-01-24T18:05:13.890Z,6.90
2024-01-24T18:07:42.733Z,7.07
2024-01-24T18:10:11.783Z,7.47
2024-01-24T18:12:40.268Z,7.83
2024-01-24T18:15:09.908Z,7.43
2024-01-24T18:17:39.289Z,6.97
2024-01-24T18:20:09.105Z,7.70
2024-01-24T18:22:39.500Z,6.93
2024-01-24T18:25:08.653Z,6.77
2024-01-24T18:27:37.345Z,8.00
2024-01-24T18:30:06.497Z,6.80
2024-01-24T18:32:35.510Z,7.73
2024-01-24T18:35:05.019Z,8.07
2024-01-24T18:37:33.643Z,7.67
2024-01-24T18:40:06.352Z,8.17
2024-01-24T18:42:36.903Z,7.30
2024-01-24T18:45:06.442Z,8.23
2024-01-24T18:47:34.907Z,7.47
2024-01-24T18:50:03.800Z,7.53
2024-01-24T18:52:32.967Z,7.20
2024-01-24T18:55:03.307Z,7.07
2024-01-24T18:57:31.924Z,6.97
2024-01-24T19:00:00.854Z,7.60
2024-01-24T19:02:29.555Z,7.17
2024-01-24T19:04:58.922Z,8.13
2024-01-24T19:07:27.850Z,8.10
2024-01-24T19:09:56.170Z,7.77
2024-01-24T19:12:25.924Z,7.03
2024-01-24T19:14:54.729Z,8.00
2024-01-24T19:17:23.474Z,7.57
2024-01-24T19:19:52.901Z,6.20
2024-01-24T19:22:22.300Z,7.13
2024-01-24T19:24:51.012Z,7.13
2024-01-24T19:27:20.305Z,6.90
2024-01-24T19:29:50.363Z,7.37
2024-01-24T19:32:19.125Z,7.43
2024-01-24T19:34:57.165Z,6.80
2024-01-24T19:37:26.622Z,6.37
2024-01-24T19:39:55.593Z,7.10
2024-01-24T19:42:24.598Z,6.73
2024-01-24T19:44:55.127Z,6.80
2024-01-24T19:47:29.271Z,7.53
2024-01-24T19:49:58.527Z,6.33
2024-01-24T19:52:26.915Z,7.40
2024-01-24T19:54:55.662Z,6.80
2024-01-24T19:57:24.236Z,6.80
2024-01-24T19:59:54.412Z,7.57
2024-01-24T20:02:23.051Z,7.50
2024-01-24T20:04:51.703Z,7.27
2024-01-24T20:07:21.606Z,7.33
2024-01-24T20:09:51.979Z,7.03
2024-01-24T20:12:20.446Z,6.53
2024-01-24T20:14:49.110Z,7.13
2024-01-24T20:17:21.359Z,6.80
2024-01-24T20:19:50.398Z,7.90
2024-01-24T20:22:19.256Z,7.60
2024-01-24T20:24:48.148Z,7.40
2024-01-24T20:27:16.398Z,7.83
2024-01-24T20:29:47.532Z,7.97
2024-01-24T20:32:18.582Z,6.90
2024-01-24T20:34:50.055Z,8.43
2024-01-24T20:37:19.907Z,8.60
2024-01-24T20:39:48.658Z,7.27
2024-01-24T20:42:25.256Z,7.23
2024-01-24T20:44:59.345Z,7.53
2024-01-24T20:47:29.523Z,7.13
2024-01-24T20:49:58.340Z,8.07
2024-01-24T20:52:26.885Z,8.00
2024-01-24T20:54:55.529Z,7.10
2024-01-24T20:57:24.123Z,7.60
2024-01-24T20:59:53.154Z,7.90
2024-01-24T21:02:22.180Z,7.77
2024-01-24T21:04:53.230Z,7.77
2024-01-24T21:07:22.305Z,8.77
2024-01-24T21:09:55.740Z,8.23
2024-01-24T21:12:24.445Z,8.50
2024-01-24T21:14:53.194Z,8.00
2024-01-24T21:17:22.213Z,7.53
2024-01-24T21:19:53.298Z,8.50
2024-01-24T21:22:22.128Z,7.93
2024-01-24T21:24:53.099Z,8.33
2024-01-24T21:27:21.515Z,8.30
2024-01-24T21:29:50.178Z,7.67
2024-01-24T21:32:21.427Z,7.87
2024-01-24T21:34:53.100Z,9.40
2024-01-24T21:37:23.654Z,8.50
2024-01-24T21:39:53.061Z,8.40
2024-01-24T21:42:21.809Z,7.77
2024-01-24T21:44:50.991Z,8.33
2024-01-24T21:47:19.802Z,9.63
2024-01-24T21:49:48.304Z,7.83
2024-01-24T21:52:18.921Z,9.00
2024-01-24T21:54:52.685Z,9.03
2024-01-24T21:57:21.362Z,8.73
2024-01-24T21:59:50.315Z,9.03
2024-01-24T22:02:18.842Z,8.00
2024-01-24T22:04:47.391Z,7.97
2024-01-24T22:07:17.576Z,8.70
2024-01-24T22:09:51.188Z,9.40
2024-01-24T22:12:20.048Z,9.47
2024-01-24T22:14:48.603Z,8.60
2024-01-24T22:17:17.217Z,8.33
2024-01-24T22:19:45.477Z,8.53
2024-01-24T22:22:14.135Z,8.63
2024-01-24T22:24:44.023Z,8.20
2024-01-24T22:27:13.034Z,8.70
2024-01-24T22:29:41.314Z,9.03
2024-01-24T22:32:09.546Z,8.70
2024-01-24T22:34:38.565Z,8.13
2024-01-24T22:37:07.281Z,8.57
2024-01-24T22:39:35.667Z,8.27
2024-01-24T22:42:06.047Z,8.53
2024-01-24T22:44:36.200Z,8.97
2024-01-24T22:47:04.880Z,9.37
2024-01-24T22:49:33.708Z,8.50
2024-01-24T22:52:02.132Z,7.77
2024-01-24T22:54:30.599Z,7.50
2024-01-24T22:56:58.995Z,9.53
2024-01-24T22:59:28.978Z,8.40
2024-01-24T23:01:57.858Z,9.80
2024-01-24T23:04:26.649Z,8.47
2024-01-24T23:06:55.126Z,9.83
2024-01-24T23:09:23.819Z,7.80
2024-01-24T23:11:55.282Z,9.80
2024-01-24T23:14:23.657Z,8.80
2024-01-24T23:16:54.552Z,8.93
2024-01-24T23:19:24.177Z,8.33
2024-01-24T23:21:52.923Z,9.53
2024-01-24T23:24:21.367Z,8.63
2024-01-24T23:26:50.283Z,9.77
2024-01-24T23:29:19.245Z,8.50
2024-01-24T23:31:47.814Z,9.57
2024-01-24T23:34:17.917Z,9.20
2024-01-24T23:36:46.846Z,8.60
2024-01-24T23:39:15.471Z,8.33
2024-01-24T23:41:44.188Z,8.27
2024-01-24T23:44:13.674Z,8.97
2024-01-24T23:46:42.219Z,8.40
2024-01-24T23:49:10.914Z,8.93
2024-01-24T23:51:41.092Z,7.87
2024-01-24T23:54:11.330Z,8.10
2024-01-24T23:56:40.010Z,8.93
2024-01-24T23:59:09.360Z,9.17
